Biggs, California
Current Conditions -  °F | °C
As of 2:53 PM on Saturday 25 Oct 2014 (Local Time) from KOVE Reporting Station
Broken Clouds Broken Clouds  
Wind Chill: 69°   Ceiling: 4000
Heat Index: 69°   Visibility: 10mi
Dew Point: 54°   Wind: 20mph
Humidity: 58%   Direction: 160°SSE
Pressure: 30.01"   Gusts: 29mph
Location:  39.41°N, 121.71°W
Report Text: KOVE 252153Z AUTO 16017G25KT 10SM SCT032 BKN040 BKN055 21/12 A3001 RMK AO2 PK WND 15026/2139 RAB16E29 SLP164 P0000 T02060122
Loading
Personal Weather Stations






























Interactive Weather Map
Tropical Storm Tracking
New forecast layout! Learn more

10-Day Weather Forecast

Advertisements
Track Severe Weather on mobile